Meteo Giornale » Osservazioni meteo Egitto » Cairo

ore: 08:30 - Osservazioni Meteo Cairo
Lat. 30° 8' N Lon. 31° 24' E Alt. 64 metri s.l.m.

sereno Africa/Cairo

28 °C

Sereno

Temp. 24 Ore

27 °C

38 °C

Nord-Est

11.1 Km/h

Dew point 23 °C

Umidità 74 %

Visibilità  10 Km

Il sole sorge alle ore 06:23

Il sole tramonta alle ore 19:31

Data e Ora Cielo e Fenomeni T °C DP °C Um. % Pres. hPa Vis. km Vento km/h
Oggi h: 08:30 sereno Sereno 28 23 74 1011 10 NE 11.1
Oggi h: 08:00 sereno Sereno 28 23 74 1011 10 NE 11.1
Oggi h: 07:30 sereno Sereno 27 23 78 1011 10 N 9.3
Oggi h: 07:00 sereno Sereno 27 23 78 1011 10 N 9.3
Oggi h: 06:30 sereno Sereno 27 23 78 1011 10 N/NE 14.8
Oggi h: 06:00 sereno Sereno 27 23 78 1010 10 E/NE 14.8
Oggi h: 05:30 sereno Sereno 27 23 78 1010 10 NE 11.1
Oggi h: 05:00 sereno Sereno 27 23 78 1010 10 NE 11.1
Oggi h: 04:30 sereno Sereno 27 23 78 1010 10 NE 13
Oggi h: 04:00 sereno Sereno 28 23 74 1010 10 NE 13
Oggi h: 03:30 sereno Sereno 28 23 74 1010 10 NE 13
Oggi h: 03:00 sereno Sereno 28 23 74 1010 10 N/NE 18.5
Oggi h: 02:30 sereno Sereno 28 23 74 1011 10 NE 14.8
Oggi h: 02:00 sereno Sereno 28 23 74 1011 10 NE 16.7
Oggi h: 01:30 sereno Sereno 28 23 74 1011 10 N/NE 22.2
Oggi h: 01:00 sereno Sereno 28 23 74 1011 10 N/NE 22.2
Oggi h: 00:30 sereno Sereno 28 23 74 1012 10 N/NE 22.2
Oggi h: 00:00 sereno Sereno 28 23 74 1012 10 N/NE 22.2
Ieri h: 23:30 sereno Sereno 29 24 74 1012 10 N/NE 25.9
Ieri h: 23:00 sereno Sereno 29 24 74 1012 10 N/NE 25.9
Ieri h: 22:30 sereno Sereno 29 24 74 1012 10 N/NE 29.6
Ieri h: 22:00 sereno Sereno 29 24 74 1012 10 N/NE 29.6
Ieri h: 21:30 sereno Sereno 30 25 74 1012 10 N 29.6
Ieri h: 21:00 sereno Sereno 31 25 70 1011 10 N 29.6
Ieri h: 20:30 sereno Sereno 31 25 70 1011 10 N 29.6
Ieri h: 20:00 sereno Sereno 32 25 66 1010 10 N 29.6
Ieri h: 19:30 sereno Sereno 34 22 49 1010 10 N 29.6
Ieri h: 19:00 sereno Sereno 34 21 46 1010 10 N 25.9
Ieri h: 18:30 sereno Sereno 34 22 49 1009 10 N 27.8
Ieri h: 18:00 sereno Sereno 35 22 47 1009 10 N/NO 27.8
Ieri h: 17:30 sereno Sereno 36 21 41 1009 10 N/NO 27.8
Ieri h: 17:00 sereno Sereno 36 20 39 1009 10 N/NO 24
Ieri h: 16:30 sereno Sereno 37 20 37 1009 10 N/NO 31.5
Ieri h: 16:00 sereno Sereno 37 20 37 1009 10 N/NO 27.8
Ieri h: 15:30 sereno Sereno 37 20 37 1009 10 NO 25.9
Ieri h: 15:00 sereno Sereno 38 18 31 1009 10 N/NE 9.3
Ieri h: 14:30 sereno Sereno 37 16 28 1009 10 E/NE 16.7
Ieri h: 14:00 sereno Sereno 37 16 28 1010 10 S 7.4
Ieri h: 13:30 sereno Sereno 37 16 28 1010 10 NO 7.4
Ieri h: 13:00 sereno Sereno 36 17 32 1010 10 N 11.1
Ieri h: 12:30 sereno Sereno 36 17 32 1011 10 N/NE 11.1
Ieri h: 12:00 sereno Sereno 35 18 36 1011 10 NE 14.8
Ieri h: 11:30 sereno Sereno 34 18 38 1011 10 NE 11.1
Ieri h: 11:00 sereno Sereno 34 18 38 1011 10 NE 14.8
Ieri h: 10:30 sereno Sereno 33 18 41 1011 10 N/NE 14.8
Ieri h: 10:00 sereno Sereno 32 18 43 1011 10 NE 16.7
Ieri h: 09:30 sereno Sereno 31 19 48 1011 10 NE 22.2
Ieri h: 09:00 sereno Sereno 29 21 62 1011 10 E/NE 22.2